createdAt,value
2022-12-20T00:01:51.587Z,40.20
2022-12-20T00:04:12.112Z,41.08
2022-12-20T00:06:34.128Z,36.45
2022-12-20T00:08:59.345Z,34.20
2022-12-20T00:11:19.445Z,33.05
2022-12-20T00:13:39.931Z,34.30
2022-12-20T00:16:13.107Z,27.38
2022-12-20T00:18:33.399Z,29.95
2022-12-20T00:21:01.498Z,34.63
2022-12-20T00:23:21.331Z,38.40
2022-12-20T00:25:42.119Z,41.75
2022-12-20T00:28:03.510Z,38.25
2022-12-20T00:30:23.532Z,39.17
2022-12-20T00:32:44.369Z,34.03
2022-12-20T00:35:04.372Z,33.25
2022-12-20T00:37:24.240Z,33.78
2022-12-20T00:39:44.109Z,31.83
2022-12-20T00:42:04.771Z,35.42
2022-12-20T00:44:24.990Z,36.33
2022-12-20T00:46:44.847Z,32.92
2022-12-20T00:49:07.028Z,35.33
2022-12-20T00:51:28.569Z,30.45
2022-12-20T00:53:48.563Z,32.50
2022-12-20T00:56:09.767Z,32.95
2022-12-20T00:58:31.103Z,33.78
2022-12-20T01:00:56.097Z,33.67
2022-12-20T01:03:16.336Z,29.98
2022-12-20T01:05:37.247Z,29.52
2022-12-20T01:07:57.303Z,33.20
2022-12-20T01:10:17.559Z,30.33
2022-12-20T01:12:37.345Z,30.05
2022-12-20T01:14:56.865Z,32.47
2022-12-20T01:17:17.884Z,33.63
2022-12-20T01:19:37.585Z,33.10
2022-12-20T01:21:57.197Z,32.63
2022-12-20T01:24:19.327Z,35.50
2022-12-20T01:26:39.374Z,36.78
2022-12-20T01:28:59.827Z,33.80
2022-12-20T01:31:21.050Z,31.00
2022-12-20T01:33:41.170Z,30.92
2022-12-20T01:36:07.880Z,30.63
2022-12-20T01:38:28.350Z,29.52
2022-12-20T01:40:48.155Z,26.83
2022-12-20T01:43:12.007Z,27.85
2022-12-20T01:45:32.106Z,29.83
2022-12-20T01:47:52.414Z,29.33
2022-12-20T01:50:12.444Z,29.52
2022-12-20T01:52:36.521Z,26.67
2022-12-20T01:55:03.592Z,28.98
2022-12-20T01:57:39.384Z,29.58
2022-12-20T01:59:59.219Z,27.70
2022-12-20T02:02:19.284Z,27.48
2022-12-20T02:04:39.506Z,27.15
2022-12-20T02:07:01.001Z,27.92
2022-12-20T02:09:21.309Z,25.60
2022-12-20T02:12:09.036Z,26.60
2022-12-20T02:15:06.403Z,26.80
2022-12-20T02:17:38.007Z,25.88
2022-12-20T02:20:10.589Z,25.70
2022-12-20T02:23:08.212Z,26.48
2022-12-20T02:25:43.348Z,26.10
2022-12-20T02:28:23.222Z,28.52
2022-12-20T02:30:48.519Z,29.20
2022-12-20T02:33:12.252Z,26.98
2022-12-20T02:35:34.991Z,29.92
2022-12-20T02:37:58.390Z,29.17
2022-12-20T02:40:24.039Z,27.80
2022-12-20T02:42:44.936Z,27.92
2022-12-20T02:45:15.343Z,31.02
2022-12-20T02:47:59.991Z,27.75
2022-12-20T02:50:43.639Z,29.42
2022-12-20T02:53:06.315Z,27.73
2022-12-20T02:56:07.136Z,28.02
2022-12-20T02:58:49.251Z,27.15
2022-12-20T03:01:15.552Z,26.80
2022-12-20T03:03:36.548Z,26.25
2022-12-20T03:05:56.507Z,25.58
2022-12-20T03:08:17.277Z,26.83
2022-12-20T03:10:37.381Z,24.95
2022-12-20T03:12:57.177Z,25.23
2022-12-20T03:15:18.105Z,22.35
2022-12-20T03:17:37.705Z,21.67
2022-12-20T03:19:57.479Z,22.70
2022-12-20T03:22:17.331Z,22.27
2022-12-20T03:24:37.300Z,24.05
2022-12-20T03:26:57.361Z,23.83
2022-12-20T03:29:17.373Z,24.85
2022-12-20T03:31:38.123Z,25.05
2022-12-20T03:33:58.218Z,26.02
2022-12-20T03:36:22.793Z,27.15
2022-12-20T03:38:42.555Z,25.65
2022-12-20T03:41:03.097Z,24.88
2022-12-20T03:43:22.827Z,25.88
2022-12-20T03:45:42.943Z,24.55
2022-12-20T03:48:02.574Z,25.42
2022-12-20T03:50:22.180Z,23.83
2022-12-20T03:52:41.891Z,24.08
2022-12-20T03:55:02.776Z,23.42
2022-12-20T03:57:22.622Z,23.55
2022-12-20T03:59:43.081Z,23.55
2022-12-20T04:02:03.522Z,25.08
2022-12-20T04:04:23.989Z,22.55
2022-12-20T04:06:43.996Z,24.58
2022-12-20T04:09:03.870Z,25.40
2022-12-20T04:11:23.657Z,26.90
2022-12-20T04:13:51.961Z,24.85
2022-12-20T04:16:13.548Z,25.13
2022-12-20T04:18:33.151Z,26.73
2022-12-20T04:20:54.172Z,26.80
2022-12-20T04:23:13.976Z,25.05
2022-12-20T04:25:33.661Z,23.95
2022-12-20T04:27:53.223Z,25.77
2022-12-20T04:30:13.525Z,27.10
2022-12-20T04:32:33.124Z,23.88
2022-12-20T04:34:52.720Z,24.00
2022-12-20T04:37:12.338Z,23.38
2022-12-20T04:39:32.016Z,26.58
2022-12-20T04:41:51.876Z,26.15
2022-12-20T04:44:12.053Z,26.17
2022-12-20T04:46:32.578Z,23.98
2022-12-20T04:48:58.222Z,24.70
2022-12-20T04:51:19.704Z,25.77
2022-12-20T04:53:48.303Z,26.77
2022-12-20T04:56:09.135Z,25.35
2022-12-20T04:58:29.120Z,24.08
2022-12-20T05:00:51.605Z,24.83
2022-12-20T05:03:11.437Z,27.20
2022-12-20T05:05:31.796Z,25.38
2022-12-20T05:07:52.846Z,25.85
2022-12-20T05:10:40.710Z,22.92
2022-12-20T05:13:04.195Z,24.77
2022-12-20T05:15:29.220Z,23.65
2022-12-20T05:17:49.099Z,25.83
2022-12-20T05:20:10.177Z,25.10
2022-12-20T05:22:48.471Z,24.67
2022-12-20T05:25:28.598Z,24.27
2022-12-20T05:27:48.202Z,24.88
2022-12-20T05:30:08.473Z,24.52
2022-12-20T05:32:28.232Z,25.83
2022-12-20T05:34:47.909Z,28.05
2022-12-20T05:37:07.523Z,28.55
2022-12-20T05:39:27.344Z,28.48
2022-12-20T05:41:47.661Z,29.42
2022-12-20T05:44:07.535Z,24.23
2022-12-20T05:46:27.344Z,27.63
2022-12-20T05:48:47.005Z,26.05
2022-12-20T05:51:06.862Z,26.05
2022-12-20T05:53:26.521Z,25.38
2022-12-20T05:55:49.744Z,23.67
2022-12-20T05:58:12.624Z,28.00
2022-12-20T06:00:32.713Z,28.30
2022-12-20T06:02:52.586Z,27.70
2022-12-20T06:05:12.447Z,26.52
2022-12-20T06:07:32.254Z,28.27
2022-12-20T06:09:52.365Z,24.70
2022-12-20T06:12:13.350Z,26.55
2022-12-20T06:14:33.284Z,24.88
2022-12-20T06:16:53.189Z,25.45
2022-12-20T06:19:20.872Z,25.20
2022-12-20T06:21:41.901Z,26.40
2022-12-20T06:24:01.776Z,24.40
2022-12-20T06:26:24.328Z,24.13
2022-12-20T06:28:44.223Z,24.38
2022-12-20T06:31:04.373Z,25.15
2022-12-20T06:33:24.476Z,26.17
2022-12-20T06:35:44.652Z,27.15
2022-12-20T06:38:04.246Z,25.95
2022-12-20T06:40:24.328Z,28.38
2022-12-20T06:42:44.199Z,33.67
2022-12-20T06:45:04.853Z,29.42
2022-12-20T06:47:24.587Z,30.80
2022-12-20T06:49:44.226Z,28.75
2022-12-20T06:52:04.279Z,28.77
2022-12-20T06:54:24.186Z,29.40
2022-12-20T06:56:44.415Z,30.08
2022-12-20T06:59:05.527Z,28.70
2022-12-20T07:01:25.775Z,32.83
2022-12-20T07:03:46.088Z,30.00
2022-12-20T07:06:06.387Z,28.02
2022-12-20T07:08:26.176Z,27.88
2022-12-20T07:10:46.005Z,30.42
2022-12-20T07:13:06.076Z,29.13
2022-12-20T07:15:26.069Z,31.50
2022-12-20T07:17:45.993Z,34.15
2022-12-20T07:20:12.752Z,33.83
2022-12-20T07:22:34.110Z,33.35
2022-12-20T07:24:54.024Z,33.88
2022-12-20T07:27:13.819Z,30.27
2022-12-20T07:29:33.689Z,30.25
2022-12-20T07:31:54.024Z,29.80
2022-12-20T07:34:14.331Z,29.42
2022-12-20T07:36:34.797Z,28.15
2022-12-20T07:38:54.896Z,29.05
2022-12-20T07:41:17.412Z,30.88
2022-12-20T07:43:37.468Z,29.42
2022-12-20T07:45:57.288Z,28.67
2022-12-20T07:48:21.549Z,29.40
2022-12-20T07:50:41.921Z,31.75
2022-12-20T07:53:04.810Z,32.88
2022-12-20T07:57:55.023Z,35.08
2022-12-20T08:00:15.738Z,38.42
2022-12-20T08:02:43.364Z,42.13
2022-12-20T08:05:07.084Z,33.47
2022-12-20T08:07:29.182Z,36.50
2022-12-20T08:09:49.775Z,32.95
2022-12-20T08:12:12.648Z,35.42
2022-12-20T08:14:32.469Z,37.17
2022-12-20T08:16:52.762Z,38.92
2022-12-20T08:19:12.837Z,39.28
2022-12-20T08:21:32.553Z,36.92
2022-12-20T08:23:52.717Z,39.47
2022-12-20T08:26:12.817Z,33.50
2022-12-20T08:28:32.718Z,25.23
2022-12-20T08:30:52.865Z,28.88
2022-12-20T08:33:12.802Z,30.38
2022-12-20T08:35:33.455Z,32.50
2022-12-20T08:37:53.459Z,30.80
2022-12-20T08:40:13.407Z,30.88
2022-12-20T08:42:33.032Z,30.60
2022-12-20T08:44:52.651Z,30.42
2022-12-20T08:47:12.269Z,29.35
2022-12-20T08:49:32.499Z,27.58
2022-12-20T08:51:52.754Z,28.35
2022-12-20T08:54:12.913Z,31.33
2022-12-20T08:56:32.626Z,31.10
2022-12-20T08:58:52.169Z,31.42
2022-12-20T09:01:15.304Z,34.85
2022-12-20T09:03:36.526Z,31.25
2022-12-20T09:05:57.921Z,26.92
2022-12-20T09:08:17.873Z,26.23
2022-12-20T09:10:37.735Z,26.40
2022-12-20T09:12:57.832Z,23.10
2022-12-20T09:15:17.560Z,19.67
2022-12-20T09:17:37.144Z,19.38
2022-12-20T09:19:56.932Z,18.92
2022-12-20T09:22:16.788Z,17.13
2022-12-20T09:24:37.491Z,19.90
2022-12-20T09:26:57.295Z,21.90
2022-12-20T09:29:22.918Z,25.13
2022-12-20T09:31:48.505Z,23.02
2022-12-20T09:34:09.558Z,24.60
2022-12-20T09:36:29.843Z,26.08
2022-12-20T09:38:50.275Z,27.50
2022-12-20T09:41:37.487Z,28.05
2022-12-20T09:43:59.617Z,31.92
2022-12-20T09:46:22.179Z,26.88
2022-12-20T09:48:43.050Z,26.15
2022-12-20T09:51:17.937Z,24.85
2022-12-20T09:53:56.012Z,25.85
2022-12-20T09:56:30.270Z,24.23
2022-12-20T09:59:06.513Z,26.83
2022-12-20T10:01:34.397Z,30.10
2022-12-20T10:03:58.610Z,32.20
2022-12-20T10:06:50.413Z,28.13
2022-12-20T10:09:25.326Z,29.83
2022-12-20T10:12:17.316Z,26.52
2022-12-20T10:14:55.932Z,24.23
2022-12-20T10:17:46.136Z,24.58
2022-12-20T10:20:41.203Z,27.02
2022-12-20T10:23:31.103Z,26.02
2022-12-20T10:25:55.968Z,31.05
2022-12-20T10:28:19.807Z,32.85
2022-12-20T10:30:40.651Z,30.17
2022-12-20T10:33:01.699Z,32.65
2022-12-20T10:35:30.574Z,31.70
2022-12-20T10:38:08.425Z,30.73
2022-12-20T10:40:53.754Z,31.30
2022-12-20T10:43:21.214Z,30.80
2022-12-20T10:45:42.680Z,32.35
2022-12-20T10:48:06.073Z,30.65
2022-12-20T10:50:26.524Z,32.53
2022-12-20T10:53:23.499Z,30.85
2022-12-20T10:55:43.131Z,32.58
2022-12-20T10:58:05.817Z,26.50
2022-12-20T11:00:30.237Z,23.53
2022-12-20T11:03:04.847Z,22.65
2022-12-20T11:05:25.566Z,23.52
2022-12-20T11:10:36.960Z,22.33
2022-12-20T11:12:58.803Z,22.42
2022-12-20T11:15:34.211Z,20.60
2022-12-20T11:18:14.425Z,23.73
2022-12-20T11:21:03.666Z,20.08
2022-12-20T11:23:58.233Z,19.20
2022-12-20T11:26:55.833Z,17.45
2022-12-20T11:29:32.739Z,16.55
2022-12-20T11:32:20.635Z,17.85
2022-12-20T11:35:11.053Z,19.00
2022-12-20T11:38:17.268Z,16.38
2022-12-20T11:40:44.728Z,16.02
2022-12-20T11:43:29.250Z,16.67
2022-12-20T11:46:27.208Z,16.27
2022-12-20T11:49:21.370Z,17.90
2022-12-20T11:54:19.503Z,19.85
2022-12-20T11:56:50.417Z,22.98
2022-12-20T11:59:31.434Z,24.52
2022-12-20T12:02:09.590Z,23.02
2022-12-20T12:04:45.742Z,17.13
2022-12-20T12:07:17.281Z,15.77
2022-12-20T12:09:46.107Z,13.77
2022-12-20T12:12:21.988Z,13.18
2022-12-20T12:15:17.624Z,12.90
2022-12-20T12:17:41.612Z,8.63
2022-12-20T12:20:17.259Z,9.43
2022-12-20T12:22:38.828Z,8.57
2022-12-20T12:25:01.822Z,8.43
2022-12-20T12:29:46.683Z,7.35
2022-12-20T12:32:19.064Z,10.23
2022-12-20T12:34:57.389Z,8.77
2022-12-20T12:37:45.993Z,8.18
2022-12-20T12:40:20.988Z,9.60
2022-12-20T12:43:18.667Z,12.20
2022-12-20T12:45:47.702Z,12.02
2022-12-20T12:48:17.913Z,11.73
2022-12-20T12:50:44.614Z,15.13
2022-12-20T12:53:36.211Z,17.63
2022-12-20T12:56:12.689Z,20.75
2022-12-20T12:58:34.044Z,38.83
2022-12-20T13:00:56.407Z,17.13
2022-12-20T13:03:37.418Z,14.38
2022-12-20T13:05:57.230Z,13.80
2022-12-20T13:08:17.787Z,12.27
2022-12-20T13:10:37.943Z,14.48
2022-12-20T13:13:00.673Z,18.67
2022-12-20T13:15:20.773Z,16.73
2022-12-20T13:18:10.210Z,14.73
2022-12-20T13:20:32.911Z,13.13
2022-12-20T13:23:07.992Z,12.43
2022-12-20T13:25:29.915Z,10.52
2022-12-20T13:27:49.849Z,12.55
2022-12-20T13:30:09.605Z,17.00
2022-12-20T13:32:47.704Z,8.90
2022-12-20T13:35:28.921Z,12.00
2022-12-20T13:38:11.912Z,16.13
2022-12-20T13:40:40.302Z,13.82
2022-12-20T13:43:07.194Z,18.02
2022-12-20T13:45:27.921Z,19.60
2022-12-20T13:48:09.188Z,14.55
2022-12-20T13:50:47.616Z,9.68
2022-12-20T13:53:17.397Z,9.93
2022-12-20T13:55:39.573Z,9.15
2022-12-20T13:58:21.444Z,10.10
2022-12-20T14:00:43.332Z,9.95
2022-12-20T14:03:03.331Z,10.18
2022-12-20T14:05:28.816Z,10.52
2022-12-20T14:08:02.707Z,12.57
2022-12-20T14:10:25.311Z,8.80
2022-12-20T14:12:45.647Z,10.48
2022-12-20T14:15:28.390Z,9.73
2022-12-20T14:17:48.346Z,8.45
2022-12-20T14:20:16.834Z,9.13
2022-12-20T14:22:37.994Z,8.32
2022-12-20T14:24:58.542Z,12.27
2022-12-20T14:27:18.800Z,9.35
2022-12-20T14:29:40.257Z,8.43
2022-12-20T14:32:00.050Z,6.78
2022-12-20T14:34:29.809Z,7.55
2022-12-20T14:36:50.780Z,9.23
2022-12-20T14:39:34.425Z,10.13
2022-12-20T14:42:09.122Z,9.90
2022-12-20T14:44:30.972Z,9.43
2022-12-20T14:46:56.724Z,9.70
2022-12-20T14:49:31.869Z,9.68
2022-12-20T14:52:03.594Z,9.85
2022-12-20T14:55:05.763Z,8.45
2022-12-20T14:57:19.441Z,9.98
2022-12-20T14:59:39.261Z,12.93
2022-12-20T15:02:32.748Z,10.30
2022-12-20T15:04:52.754Z,33.72
2022-12-20T15:07:31.477Z,35.75
2022-12-20T15:09:51.442Z,28.92
2022-12-20T15:12:10.960Z,19.80
2022-12-20T15:14:38.734Z,19.48
2022-12-20T15:16:58.404Z,20.02
2022-12-20T15:19:18.329Z,20.33
2022-12-20T15:21:42.130Z,18.75
2022-12-20T15:24:07.199Z,19.63
2022-12-20T15:26:27.687Z,21.58
2022-12-20T15:28:48.092Z,20.08
2022-12-20T15:31:11.351Z,28.25
2022-12-20T15:33:33.783Z,31.05
2022-12-20T15:35:53.946Z,25.70
2022-12-20T15:38:34.731Z,28.30
2022-12-20T15:41:11.017Z,19.17
2022-12-20T15:43:38.842Z,12.65
2022-12-20T15:45:59.283Z,10.73
2022-12-20T15:48:21.630Z,16.27
2022-12-20T15:50:55.106Z,16.23
2022-12-20T15:53:19.283Z,14.13
2022-12-20T15:55:40.197Z,15.80
2022-12-20T15:58:02.153Z,13.40
2022-12-20T16:00:22.292Z,14.45
2022-12-20T16:02:42.602Z,19.63
2022-12-20T16:05:02.775Z,22.63
2022-12-20T16:07:22.938Z,19.58
2022-12-20T16:09:42.920Z,22.27
2022-12-20T16:12:03.048Z,18.67
2022-12-20T16:14:23.017Z,23.30
2022-12-20T16:16:44.829Z,23.40
2022-12-20T16:19:04.658Z,24.17
2022-12-20T16:21:27.117Z,20.27
2022-12-20T16:23:47.513Z,23.63
2022-12-20T16:26:12.804Z,26.13
2022-12-20T16:28:32.405Z,24.92
2022-12-20T16:30:53.625Z,35.85
2022-12-20T16:33:20.482Z,34.28
2022-12-20T16:35:40.388Z,35.67
2022-12-20T16:38:00.618Z,42.15
2022-12-20T16:40:23.033Z,51.35
2022-12-20T16:42:43.122Z,59.30
2022-12-20T16:45:04.106Z,58.60
2022-12-20T16:47:24.173Z,46.15
2022-12-20T16:49:51.573Z,55.05
2022-12-20T16:52:18.393Z,51.22
2022-12-20T16:54:38.451Z,44.90
2022-12-20T16:56:58.310Z,44.15
2022-12-20T16:59:20.884Z,35.88
2022-12-20T17:01:43.930Z,40.33
2022-12-20T17:04:05.091Z,25.65
2022-12-20T17:06:25.233Z,26.45
2022-12-20T17:11:31.536Z,24.25
2022-12-20T17:13:53.251Z,29.83
2022-12-20T17:16:14.289Z,34.30
2022-12-20T17:18:34.233Z,24.15
2022-12-20T17:20:53.846Z,30.40
2022-12-20T17:25:54.536Z,35.15
2022-12-20T17:28:14.655Z,41.28
2022-12-20T17:30:35.140Z,30.90
2022-12-20T17:32:55.188Z,22.73
2022-12-20T17:35:22.802Z,21.55
2022-12-20T17:37:42.392Z,22.13
2022-12-20T17:40:02.142Z,25.63
2022-12-20T17:42:28.790Z,26.65
2022-12-20T17:44:50.758Z,24.17
2022-12-20T17:47:10.872Z,23.85
2022-12-20T17:49:30.618Z,24.80
2022-12-20T17:51:51.439Z,23.10
2022-12-20T17:54:22.713Z,18.77
2022-12-20T17:56:42.576Z,23.88
2022-12-20T17:59:03.937Z,17.85
2022-12-20T18:01:32.667Z,33.08
2022-12-20T18:04:03.589Z,19.42
2022-12-20T18:06:25.266Z,16.42
2022-12-20T18:08:50.592Z,46.15
2022-12-20T18:11:10.511Z,53.75
2022-12-20T18:13:30.362Z,50.72
2022-12-20T18:15:50.069Z,33.20
2022-12-20T18:18:09.649Z,46.63
2022-12-20T18:20:29.330Z,51.65
2022-12-20T18:22:48.920Z,48.38
2022-12-20T18:25:09.474Z,37.22
2022-12-20T18:27:31.127Z,37.78
2022-12-20T18:29:50.730Z,43.40
2022-12-20T18:32:10.809Z,49.50
2022-12-20T18:34:30.765Z,33.60
2022-12-20T18:36:50.448Z,29.85
2022-12-20T18:39:12.283Z,40.15
2022-12-20T18:41:32.790Z,33.47
2022-12-20T18:43:55.720Z,28.35
2022-12-20T18:48:37.977Z,27.25
2022-12-20T18:51:10.810Z,28.55
2022-12-20T18:53:32.757Z,38.70
2022-12-20T18:55:53.723Z,40.20
2022-12-20T18:58:13.526Z,40.45
2022-12-20T19:00:35.704Z,23.20
2022-12-20T19:02:59.245Z,30.67
2022-12-20T19:05:19.100Z,46.63
2022-12-20T19:07:38.629Z,62.85
2022-12-20T19:09:58.245Z,49.05
2022-12-20T19:12:17.783Z,58.42
2022-12-20T19:14:37.296Z,56.13
2022-12-20T19:16:57.403Z,48.00
2022-12-20T19:19:17.492Z,46.83
2022-12-20T19:21:42.084Z,50.38
2022-12-20T19:24:06.021Z,50.05
2022-12-20T19:26:27.102Z,20.77
2022-12-20T19:28:47.267Z,48.47
2022-12-20T19:31:35.714Z,42.75
2022-12-20T19:33:58.231Z,51.75
2022-12-20T19:36:27.642Z,35.67
2022-12-20T19:38:59.851Z,37.75
2022-12-20T19:41:20.195Z,34.90
2022-12-20T19:43:41.243Z,33.20
2022-12-20T19:46:01.651Z,32.65
2022-12-20T19:48:21.604Z,37.95
2022-12-20T19:50:41.332Z,44.55
2022-12-20T19:53:00.933Z,42.83
2022-12-20T19:55:21.005Z,39.05
2022-12-20T19:57:40.898Z,35.67
2022-12-20T20:00:00.335Z,44.88
2022-12-20T20:02:19.947Z,39.97
2022-12-20T20:04:40.513Z,35.30
2022-12-20T20:07:01.737Z,47.95
2022-12-20T20:09:21.908Z,45.38
2022-12-20T20:11:41.797Z,23.10
2022-12-20T20:14:02.839Z,35.85
2022-12-20T20:16:23.417Z,32.25
2022-12-20T20:18:45.176Z,30.80
2022-12-20T20:21:17.201Z,23.05
2022-12-20T20:23:37.676Z,26.23
2022-12-20T20:25:58.044Z,27.63
2022-12-20T20:28:18.091Z,23.00
2022-12-20T20:30:46.638Z,27.63
2022-12-20T20:33:07.999Z,33.33
2022-12-20T20:35:27.896Z,42.08
2022-12-20T20:37:47.285Z,36.97
2022-12-20T20:40:07.401Z,41.65
2022-12-20T20:42:26.918Z,44.63
2022-12-20T20:44:46.387Z,54.08
2022-12-20T20:47:06.504Z,40.45
2022-12-20T20:49:27.084Z,44.80
2022-12-20T20:51:47.584Z,33.15
2022-12-20T20:54:07.446Z,29.48
2022-12-20T20:56:27.590Z,39.72
2022-12-20T20:58:49.235Z,28.92
2022-12-20T21:01:09.894Z,28.67
2022-12-20T21:03:31.010Z,26.40
2022-12-20T21:06:34.545Z,24.67
2022-12-20T21:08:30.505Z,19.38
2022-12-20T21:10:50.714Z,25.80
2022-12-20T21:13:11.383Z,24.67
2022-12-20T21:15:32.371Z,39.03
2022-12-20T21:17:52.244Z,38.08
2022-12-20T21:20:12.316Z,43.75
2022-12-20T21:22:31.737Z,40.67
2022-12-20T21:24:51.885Z,37.70
2022-12-20T21:27:11.527Z,30.95
2022-12-20T21:29:31.344Z,31.90
2022-12-20T21:31:51.583Z,25.50
2022-12-20T21:34:11.549Z,38.25
2022-12-20T21:36:31.178Z,35.53
2022-12-20T21:38:54.200Z,35.65
2022-12-20T21:41:14.108Z,32.45
2022-12-20T21:43:34.053Z,49.40
2022-12-20T21:45:54.117Z,20.33
2022-12-20T21:48:14.150Z,23.77
2022-12-20T21:50:33.766Z,48.70
2022-12-20T21:52:53.535Z,51.55
2022-12-20T21:55:13.504Z,48.10
2022-12-20T21:57:33.139Z,50.90
2022-12-20T21:59:52.785Z,45.22
2022-12-20T22:02:13.703Z,41.58
2022-12-20T22:04:34.875Z,41.25
2022-12-20T22:06:54.995Z,40.05
2022-12-20T22:09:16.376Z,40.50
2022-12-20T22:11:36.858Z,29.55
2022-12-20T22:13:56.567Z,53.13
2022-12-20T22:16:20.301Z,26.42
2022-12-20T22:18:40.892Z,43.90
2022-12-20T22:21:08.583Z,38.85
2022-12-20T22:23:28.352Z,33.25
2022-12-20T22:25:48.116Z,35.72
2022-12-20T22:28:08.312Z,28.85
2022-12-20T22:30:28.318Z,37.30
2022-12-20T22:32:47.912Z,33.33
2022-12-20T22:35:07.931Z,15.02
2022-12-20T22:37:27.633Z,15.80
2022-12-20T22:39:48.794Z,16.83
2022-12-20T22:42:09.355Z,18.33
2022-12-20T22:44:29.030Z,19.02
2022-12-20T22:46:48.839Z,27.08
2022-12-20T22:49:16.846Z,23.15
2022-12-20T22:51:36.775Z,17.70
2022-12-20T22:53:57.281Z,16.65
2022-12-20T22:56:18.982Z,13.88
2022-12-20T22:58:39.458Z,15.77
2022-12-20T23:01:01.740Z,15.65
2022-12-20T23:03:21.380Z,16.03
2022-12-20T23:05:51.183Z,15.38
2022-12-20T23:08:11.248Z,14.77
2022-12-20T23:10:51.666Z,14.10
2022-12-20T23:13:30.350Z,17.50
2022-12-20T23:16:02.636Z,13.45
2022-12-20T23:18:22.682Z,13.25
2022-12-20T23:21:09.690Z,15.77
2022-12-20T23:23:29.887Z,14.13
2022-12-20T23:25:51.041Z,14.20
2022-12-20T23:28:10.637Z,13.50
2022-12-20T23:30:30.375Z,14.18
2022-12-20T23:32:50.649Z,13.93
2022-12-20T23:35:12.889Z,14.77
2022-12-20T23:37:33.118Z,12.43
2022-12-20T23:39:52.902Z,12.98
2022-12-20T23:42:12.490Z,14.55
2022-12-20T23:44:32.326Z,14.20
2022-12-20T23:46:52.310Z,16.55
2022-12-20T23:49:11.897Z,14.68
2022-12-20T23:51:33.732Z,14.30
2022-12-20T23:53:53.884Z,13.85
2022-12-20T23:56:16.857Z,11.77
2022-12-20T23:58:37.345Z,11.48
